Time;durP1;ratioP1;P1;durP2;ratioP2;P2;SDS_P1;SDS_P2;PMS_P1;PMS_P2;Temp;Humidity;BMP_temperature;BMP_pressure;BME280_temperature;BME280_humidity;BME280_pressure;Samples;Min_cycle;Max_cycle;Signal;HPM_P1;HPM_P2
2021/10/26 00:02:08;;;;;;;3.23;1.20;;;14.40;99.90;;;;;;5030295;28;20662;-78
2021/10/26 00:04:34;;;;;;;2.57;1.40;;;14.40;99.90;;;;;;5014884;28;20225;-77
2021/10/26 00:07:00;;;;;;;2.20;1.50;;;14.40;99.90;;;;;;5014776;28;20564;-77
2021/10/26 00:09:26;;;;;;;4.00;1.50;;;14.30;99.90;;;;;;5029863;28;20673;-77
2021/10/26 00:11:52;;;;;;;3.60;1.77;;;14.30;99.90;;;;;;5030148;28;20205;-77
2021/10/26 00:14:18;;;;;;;1.60;1.20;;;14.30;99.90;;;;;;5014779;28;20216;-77
2021/10/26 00:16:44;;;;;;;2.67;1.20;;;14.20;99.90;;;;;;5013465;28;20577;-77
2021/10/26 00:19:10;;;;;;;3.87;1.37;;;14.20;99.90;;;;;;5029903;28;20170;-76
2021/10/26 00:21:36;;;;;;;1.70;1.00;;;14.10;99.90;;;;;;5030030;28;20588;-76
2021/10/26 00:24:02;;;;;;;3.03;1.47;;;14.10;99.90;;;;;;5014463;28;20174;-76
2021/10/26 00:26:28;;;;;;;2.13;1.60;;;14.10;99.90;;;;;;5014589;28;20572;-76
2021/10/26 00:28:56;;;;;;;2.50;1.80;;;14.10;99.90;;;;;;5014433;28;20201;-75
2021/10/26 00:31:22;;;;;;;2.67;1.30;;;14.10;99.90;;;;;;4997202;28;20249;-75
2021/10/26 00:33:48;;;;;;;2.73;1.50;;;14.10;99.90;;;;;;5014412;28;20636;-75
2021/10/26 00:36:14;;;;;;;2.47;1.93;;;14.10;99.90;;;;;;5029359;28;20635;-76
2021/10/26 00:38:40;;;;;;;2.23;1.40;;;14.10;99.90;;;;;;5014496;28;20170;-76
2021/10/26 00:41:05;;;;;;;1.97;1.40;;;14.10;99.90;;;;;;5013041;28;20566;-76
2021/10/26 00:43:32;;;;;;;2.23;1.27;;;14.10;99.90;;;;;;5014710;28;20214;-76
2021/10/26 00:45:59;;;;;;;1.80;1.30;;;14.00;99.90;;;;;;5012365;28;20576;-75
2021/10/26 00:48:24;;;;;;;2.00;1.42;;;14.00;99.90;;;;;;5012835;28;20261;-75
2021/10/26 00:50:50;;;;;;;2.70;1.50;;;14.00;99.90;;;;;;5029426;28;20685;-75
2021/10/26 00:53:17;;;;;;;2.73;1.70;;;14.00;99.90;;;;;;5012715;28;20745;-75
2021/10/26 00:55:47;;;;;;;2.57;1.40;;;14.00;99.90;;;;;;5028937;28;20572;-75
2021/10/26 00:58:13;;;;;;;2.63;1.63;;;14.00;99.90;;;;;;5012881;28;20639;-75
2021/10/26 01:00:39;;;;;;;2.10;1.57;;;14.00;99.90;;;;;;5029184;28;20573;-75
2021/10/26 01:03:07;;;;;;;2.28;1.80;;;14.00;99.90;;;;;;5012753;28;20973;-75
2021/10/26 01:05:35;;;;;;;3.65;1.50;;;14.00;99.90;;;;;;5028706;28;20178;-76
2021/10/26 01:08:02;;;;;;;1.90;1.70;;;14.00;99.90;;;;;;5012787;28;20174;-75
2021/10/26 01:10:31;;;;;;;1.98;1.58;;;14.00;99.90;;;;;;5028958;28;20612;-75
2021/10/26 01:12:57;;;;;;;3.97;1.80;;;14.00;99.90;;;;;;5012494;28;20256;-75
2021/10/26 01:15:23;;;;;;;2.13;1.90;;;14.00;99.90;;;;;;5012067;28;20659;-75
2021/10/26 01:17:50;;;;;;;2.53;1.80;;;14.00;99.90;;;;;;5012425;28;21148;-75
2021/10/26 01:20:16;;;;;;;3.63;1.77;;;14.00;99.90;;;;;;5028988;28;20174;-75
2021/10/26 01:22:41;;;;;;;4.10;1.80;;;13.90;99.90;;;;;;5013315;28;20289;-75
2021/10/26 01:25:12;;;;;;;2.42;1.20;;;13.90;99.90;;;;;;5028703;28;20181;-75
2021/10/26 01:27:45;;;;;;;2.85;1.40;;;14.00;99.90;;;;;;5012051;28;20669;-75
2021/10/26 01:30:13;;;;;;;2.00;1.70;;;13.90;99.90;;;;;;5028771;28;20248;-75
2021/10/26 01:32:39;;;;;;;2.15;1.48;;;13.90;99.90;;;;;;5011755;28;20640;-76
2021/10/26 01:35:25;;;;;;;2.50;1.83;;;13.90;99.90;;;;;;5013122;28;20177;-75
2021/10/26 01:37:51;;;;;;;2.30;2.10;;;13.90;99.90;;;;;;5012045;28;20555;-75
2021/10/26 01:40:17;;;;;;;2.60;1.97;;;13.90;99.90;;;;;;5028737;28;20228;-75
2021/10/26 01:42:44;;;;;;;4.57;1.85;;;13.80;99.90;;;;;;5011911;28;20707;-75
2021/10/26 01:45:10;;;;;;;4.07;1.60;;;13.80;99.90;;;;;;5011773;28;20250;-75
2021/10/26 01:47:36;;;;;;;2.90;1.73;;;13.90;99.90;;;;;;5011775;28;20672;-75
2021/10/26 01:50:09;;;;;;;4.35;2.03;;;13.90;99.90;;;;;;5028628;28;20174;-75
2021/10/26 01:52:34;;;;;;;2.10;1.63;;;13.80;99.90;;;;;;5011672;28;20706;-75
2021/10/26 01:55:00;;;;;;;2.33;1.80;;;13.80;99.90;;;;;;5028470;28;20205;-75
2021/10/26 01:57:28;;;;;;;3.63;1.83;;;13.90;99.90;;;;;;5011373;28;20925;-76
2021/10/26 02:00:05;;;;;;;2.05;1.67;;;13.80;99.90;;;;;;5012500;28;20220;-75
2021/10/26 02:02:40;;;;;;;3.13;2.05;;;13.80;99.90;;;;;;5027862;28;20198;-75
2021/10/26 02:05:06;;;;;;;3.38;1.67;;;13.80;99.90;;;;;;5012682;28;20163;-75
2021/10/26 02:07:32;;;;;;;3.90;1.35;;;13.80;99.90;;;;;;5011458;28;20178;-75
2021/10/26 02:09:58;;;;;;;3.03;1.90;;;13.80;99.90;;;;;;5028165;28;20534;-75
2021/10/26 02:12:25;;;;;;;2.53;1.73;;;13.80;99.90;;;;;;5011082;28;20209;-76
2021/10/26 02:14:54;;;;;;;2.10;1.60;;;13.70;99.90;;;;;;5011328;28;20170;-76
2021/10/26 02:17:20;;;;;;;2.67;1.50;;;13.70;99.90;;;;;;5011179;28;20224;-75
2021/10/26 02:19:46;;;;;;;2.60;1.83;;;13.60;99.90;;;;;;5011458;28;20575;-76
2021/10/26 02:22:11;;;;;;;2.30;1.80;;;13.60;99.90;;;;;;5011296;28;20194;-75
2021/10/26 02:24:37;;;;;;;2.27;1.83;;;13.60;99.90;;;;;;5012298;28;21151;-75
2021/10/26 02:27:03;;;;;;;2.17;1.60;;;13.60;99.90;;;;;;5011352;28;20175;-77
2021/10/26 02:29:29;;;;;;;2.37;1.80;;;13.60;99.90;;;;;;5010905;28;20701;-76
2021/10/26 02:32:00;;;;;;;2.38;1.67;;;13.60;99.90;;;;;;5027635;28;20998;-76
2021/10/26 02:34:26;;;;;;;5.25;1.90;;;13.60;99.90;;;;;;5027394;28;20198;-76
2021/10/26 02:36:52;;;;;;;2.77;2.30;;;13.60;99.90;;;;;;5012177;28;20602;-76
2021/10/26 02:39:18;;;;;;;2.00;1.65;;;13.60;99.90;;;;;;5010821;28;20202;-76
2021/10/26 02:41:44;;;;;;;2.90;2.60;;;13.60;99.90;;;;;;5010724;28;20174;-76
2021/10/26 02:44:10;;;;;;;2.78;1.88;;;13.60;99.90;;;;;;5010357;28;20583;-76
2021/10/26 02:46:39;;;;;;;4.13;1.80;;;13.70;99.90;;;;;;5026994;28;20589;-76
2021/10/26 02:49:04;;;;;;;2.58;1.92;;;13.70;99.90;;;;;;5010791;28;20175;-76
2021/10/26 02:51:30;;;;;;;2.33;2.13;;;13.70;99.90;;;;;;5010843;28;20218;-76
2021/10/26 02:53:56;;;;;;;7.03;2.60;;;13.80;99.90;;;;;;5010500;28;20253;-76
2021/10/26 02:56:22;;;;;;;2.93;2.00;;;13.80;99.90;;;;;;5026840;28;20258;-76
2021/10/26 02:58:48;;;;;;;3.43;1.83;;;13.80;99.90;;;;;;5027054;28;20253;-76
2021/10/26 03:01:14;;;;;;;2.67;1.93;;;13.80;99.90;;;;;;5010788;28;20537;-76
2021/10/26 03:03:40;;;;;;;2.47;1.90;;;13.70;99.90;;;;;;5011587;28;21229;-76
2021/10/26 03:06:06;;;;;;;4.40;2.00;;;13.70;99.90;;;;;;5010548;28;21159;-76
2021/10/26 03:08:32;;;;;;;2.10;1.80;;;13.70;99.90;;;;;;5010701;28;20178;-76
2021/10/26 03:10:58;;;;;;;2.42;2.13;;;13.70;99.90;;;;;;5026709;28;20269;-76
2021/10/26 03:13:24;;;;;;;2.40;2.00;;;13.70;99.90;;;;;;5010517;28;20297;-76
2021/10/26 03:15:50;;;;;;;3.17;1.80;;;13.70;99.90;;;;;;5010196;28;20167;-76
2021/10/26 03:18:18;;;;;;;3.78;2.00;;;13.70;99.90;;;;;;5010710;28;20984;-76
2021/10/26 03:20:44;;;;;;;2.73;2.10;;;13.60;99.90;;;;;;5011454;28;20262;-76
2021/10/26 03:23:11;;;;;;;3.05;2.65;;;13.60;99.90;;;;;;5010684;28;20961;-76
2021/10/26 03:25:37;;;;;;;4.30;2.50;;;13.60;99.90;;;;;;5010135;28;20181;-76
2021/10/26 03:28:03;;;;;;;4.77;2.00;;;13.60;99.90;;;;;;5012027;28;20170;-76
2021/10/26 03:30:29;;;;;;;2.05;1.85;;;13.60;99.90;;;;;;5011538;28;20171;-76
2021/10/26 03:33:08;;;;;;;4.30;2.22;;;13.60;99.90;;;;;;5010309;28;20249;-76
2021/10/26 03:35:37;;;;;;;3.97;2.08;;;13.60;99.90;;;;;;5009957;28;20249;-77
2021/10/26 03:38:05;;;;;;;2.42;1.80;;;13.60;99.90;;;;;;5010536;28;20170;-77
2021/10/26 03:40:32;;;;;;;2.40;1.75;;;13.60;99.90;;;;;;5010233;28;20316;-76
2021/10/26 03:42:58;;;;;;;2.20;1.55;;;13.60;99.90;;;;;;5026675;28;20213;-76
2021/10/26 03:45:24;;;;;;;3.55;2.03;;;13.60;99.90;;;;;;5026653;28;20173;-76
2021/10/26 03:47:50;;;;;;;2.40;1.60;;;13.60;99.90;;;;;;5026792;28;20261;-76
2021/10/26 03:50:16;;;;;;;3.17;1.70;;;13.60;99.90;;;;;;5010078;28;20581;-76
2021/10/26 03:52:43;;;;;;;5.05;2.58;;;13.60;99.90;;;;;;5010054;28;20210;-77
2021/10/26 03:55:10;;;;;;;4.63;2.58;;;13.60;99.90;;;;;;5011063;28;20194;-76
2021/10/26 03:57:38;;;;;;;4.25;2.20;;;13.60;99.90;;;;;;5010228;28;20668;-76
2021/10/26 04:00:06;;;;;;;2.47;2.27;;;13.60;99.90;;;;;;5026689;28;20179;-77
2021/10/26 04:02:41;;;;;;;2.60;2.10;;;13.60;99.90;;;;;;5011101;28;20703;-76
2021/10/26 04:05:25;;;;;;;2.70;2.20;;;13.60;99.90;;;;;;5026289;28;20210;-76
2021/10/26 04:07:57;;;;;;;2.97;1.85;;;13.70;99.90;;;;;;5010688;28;20175;-76
2021/10/26 04:10:42;;;;;;;3.97;2.60;;;13.70;99.90;;;;;;5042638;28;20182;-76
2021/10/26 04:13:08;;;;;;;4.03;2.47;;;13.70;99.90;;;;;;5021212;28;20204;-76
2021/10/26 04:15:34;;;;;;;3.00;2.30;;;13.70;99.90;;;;;;5028985;28;20170;-76
2021/10/26 04:18:00;;;;;;;5.10;2.63;;;13.60;99.90;;;;;;5040469;28;20241;-76
2021/10/26 04:20:26;;;;;;;3.83;2.22;;;13.60;99.90;;;;;;5043180;28;20181;-76
2021/10/26 04:22:52;;;;;;;3.30;2.63;;;13.50;99.90;;;;;;5047675;28;20190;-76
2021/10/26 04:25:18;;;;;;;3.63;2.00;;;13.50;99.90;;;;;;5025127;28;20608;-76
2021/10/26 04:27:44;;;;;;;4.40;2.10;;;13.50;99.90;;;;;;5032864;28;20174;-76
2021/10/26 04:30:10;;;;;;;3.33;2.03;;;13.40;99.90;;;;;;5049825;28;20536;-76
2021/10/26 04:32:36;;;;;;;3.50;2.40;;;13.30;99.90;;;;;;5032587;28;20205;-76
2021/10/26 04:35:07;;;;;;;2.85;2.08;;;13.30;99.90;;;;;;5032972;28;20561;-77
2021/10/26 04:37:34;;;;;;;2.88;1.63;;;13.20;99.90;;;;;;5049421;28;20205;-76
2021/10/26 04:40:02;;;;;;;3.38;2.13;;;13.20;99.90;;;;;;5034459;28;20178;-76
2021/10/26 04:42:30;;;;;;;2.33;2.10;;;13.10;99.90;;;;;;5048947;28;20573;-76
2021/10/26 04:44:57;;;;;;;2.92;2.03;;;13.10;99.90;;;;;;5032846;28;20176;-76
2021/10/26 04:47:25;;;;;;;5.30;2.83;;;13.10;99.90;;;;;;5016070;28;20178;-77
2021/10/26 04:49:51;;;;;;;5.55;2.55;;;13.10;99.90;;;;;;5049550;28;20184;-76
2021/10/26 04:52:16;;;;;;;4.10;2.40;;;13.00;99.90;;;;;;5033918;28;20563;-76
2021/10/26 04:54:43;;;;;;;4.45;2.38;;;13.00;99.90;;;;;;5049232;28;20174;-76
2021/10/26 04:57:09;;;;;;;4.00;2.53;;;13.00;99.90;;;;;;5032131;28;20182;-76
2021/10/26 05:00:05;;;;;;;3.40;2.65;;;12.90;99.90;;;;;;5018652;28;20662;-75
2021/10/26 05:02:31;;;;;;;4.45;2.33;;;12.90;99.90;;;;;;5029234;28;20203;-75
2021/10/26 05:04:56;;;;;;;5.13;2.53;;;12.90;99.90;;;;;;5029252;28;20184;-75
2021/10/26 05:07:22;;;;;;;7.60;3.17;;;12.80;99.90;;;;;;5012724;28;20563;-76
2021/10/26 05:09:48;;;;;;;10.23;3.70;;;12.80;99.90;;;;;;5029477;28;20178;-76
2021/10/26 05:12:13;;;;;;;3.10;2.03;;;12.80;99.90;;;;;;5013283;28;20198;-76
2021/10/26 05:14:39;;;;;;;4.90;2.70;;;12.80;99.90;;;;;;5012458;28;20206;-76
2021/10/26 05:17:32;;;;;;;2.97;2.25;;;12.80;99.90;;;;;;5012555;28;20590;-76
2021/10/26 05:20:18;;;;;;;7.13;3.47;;;12.80;99.90;;;;;;5013894;28;20166;-75
2021/10/26 05:23:03;;;;;;;6.00;2.53;;;12.80;99.90;;;;;;5013521;28;20209;-76
2021/10/26 05:25:52;;;;;;;2.75;2.50;;;12.80;99.90;;;;;;5028963;28;20179;-76
2021/10/26 05:28:21;;;;;;;5.40;2.60;;;12.70;99.90;;;;;;5028638;28;20170;-77
2021/10/26 05:30:47;;;;;;;3.33;2.30;;;12.70;99.90;;;;;;5028852;28;20181;-76
2021/10/26 05:33:13;;;;;;;9.13;2.50;;;12.70;99.90;;;;;;5028158;28;20213;-75
2021/10/26 05:35:39;;;;;;;3.40;2.30;;;12.70;99.90;;;;;;5012003;28;20564;-76
2021/10/26 05:38:05;;;;;;;5.77;3.23;;;12.70;99.90;;;;;;5028605;28;20605;-76
2021/10/26 05:40:30;;;;;;;3.53;2.90;;;12.70;99.90;;;;;;5013201;28;20170;-76
2021/10/26 05:42:56;;;;;;;3.90;2.83;;;12.70;99.90;;;;;;5013061;28;20205;-76
2021/10/26 05:45:22;;;;;;;4.33;2.20;;;12.80;99.90;;;;;;5011716;28;20171;-76
2021/10/26 05:47:50;;;;;;;7.00;2.70;;;12.80;99.90;;;;;;5013269;28;20174;-76
2021/10/26 05:50:16;;;;;;;4.82;3.15;;;12.90;99.90;;;;;;5011633;28;20714;-76
2021/10/26 05:52:42;;;;;;;4.23;3.10;;;13.00;99.90;;;;;;5012883;28;20289;-77
2021/10/26 05:55:07;;;;;;;4.47;2.40;;;13.00;99.90;;;;;;5011510;28;20190;-76
2021/10/26 05:57:35;;;;;;;3.97;3.00;;;13.10;99.90;;;;;;5011839;28;20566;-77
2021/10/26 06:00:01;;;;;;;4.43;3.00;;;13.10;99.90;;;;;;5027966;28;20258;-76
2021/10/26 06:02:37;;;;;;;4.82;2.92;;;13.20;99.90;;;;;;5011608;28;20198;-76
2021/10/26 06:05:03;;;;;;;4.53;2.47;;;13.20;99.90;;;;;;5012422;28;20224;-76
2021/10/26 06:07:32;;;;;;;4.28;2.55;;;13.20;99.90;;;;;;5027736;28;20186;-76
2021/10/26 06:09:58;;;;;;;4.10;2.20;;;13.20;99.90;;;;;;5027750;28;20212;-76
2021/10/26 06:12:29;;;;;;;3.83;3.05;;;13.20;99.90;;;;;;4994974;28;20202;-76
2021/10/26 06:14:55;;;;;;;4.57;2.63;;;13.10;99.90;;;;;;5012356;28;20166;-77
2021/10/26 06:17:21;;;;;;;5.10;3.40;;;13.10;99.90;;;;;;5011488;28;20177;-76
2021/10/26 06:19:53;;;;;;;6.18;2.60;;;13.10;99.90;;;;;;5011146;28;20589;-76
2021/10/26 06:22:19;;;;;;;3.40;2.67;;;13.00;99.90;;;;;;5011382;28;20297;-75
2021/10/26 06:24:46;;;;;;;5.20;2.85;;;12.90;99.90;;;;;;5011276;28;20588;-76
2021/10/26 06:27:12;;;;;;;3.38;2.85;;;12.90;99.90;;;;;;5010958;28;20228;-77
2021/10/26 06:29:41;;;;;;;2.70;2.30;;;12.80;99.90;;;;;;5011297;28;20170;-77
2021/10/26 06:32:19;;;;;;;5.75;2.15;;;12.80;99.90;;;;;;5010875;28;20205;-76
2021/10/26 06:34:45;;;;;;;4.63;2.80;;;12.70;99.90;;;;;;5027620;28;20242;-76
2021/10/26 06:37:13;;;;;;;3.28;2.83;;;12.70;99.90;;;;;;5010662;28;20616;-76
2021/10/26 06:39:39;;;;;;;6.73;3.30;;;12.70;99.90;;;;;;5027769;28;20623;-76
2021/10/26 06:42:05;;;;;;;3.15;2.30;;;12.80;99.90;;;;;;5011199;28;20614;-72
2021/10/26 06:44:49;;;;;;;3.90;2.63;;;12.80;99.90;;;;;;5010790;28;20182;-73
2021/10/26 06:47:53;;;;;;;3.40;2.50;;;12.90;99.90;;;;;;4973728;28;20662;-73
2021/10/26 06:50:38;;;;;;;4.78;2.90;;;12.90;99.90;;;;;;4990104;28;20175;-74
2021/10/26 06:53:43;;;;;;;3.40;2.13;;;13.00;99.90;;;;;;5008671;28;20248;-73
2021/10/26 06:56:29;;;;;;;4.47;2.40;;;13.00;99.90;;;;;;5011888;28;20177;-74
2021/10/26 06:59:13;;;;;;;2.67;2.25;;;13.10;99.90;;;;;;5012253;28;20181;-74
2021/10/26 07:02:05;;;;;;;5.18;2.30;;;13.20;99.90;;;;;;5003280;28;20247;-74
2021/10/26 07:04:53;;;;;;;6.45;2.60;;;13.20;99.90;;;;;;5011993;28;20174;-74
2021/10/26 07:07:33;;;;;;;3.30;2.17;;;13.30;99.90;;;;;;5015195;28;20857;-74
2021/10/26 07:10:09;;;;;;;2.42;2.13;;;13.40;99.90;;;;;;5046975;28;20184;-74
2021/10/26 07:12:49;;;;;;;7.50;2.75;;;13.40;99.90;;;;;;5015721;28;20254;-73
2021/10/26 07:15:16;;;;;;;3.90;2.22;;;13.50;99.90;;;;;;5030765;28;20158;-75
2021/10/26 07:17:43;;;;;;;2.25;1.70;;;13.50;99.90;;;;;;5029751;28;20188;-75
2021/10/26 07:20:12;;;;;;;4.53;2.40;;;13.50;99.90;;;;;;5024161;28;20611;-73
2021/10/26 07:23:13;;;;;;;2.95;2.30;;;13.50;99.90;;;;;;4988978;28;20201;-74
2021/10/26 07:25:57;;;;;;;2.70;1.90;;;13.60;99.90;;;;;;5025239;28;20185;-75
2021/10/26 07:28:23;;;;;;;3.88;2.78;;;13.60;99.90;;;;;;5046253;28;20170;-73
2021/10/26 07:30:50;;;;;;;3.22;2.40;;;13.70;99.90;;;;;;5022448;28;20178;-75
2021/10/26 07:33:22;;;;;;;3.10;1.90;;;13.80;99.90;;;;;;5046167;28;20205;-74
2021/10/26 07:35:52;;;;;;;5.50;2.63;;;14.00;99.90;;;;;;5029283;28;20588;-75
2021/10/26 07:38:28;;;;;;;5.57;2.42;;;14.10;99.90;;;;;;5047180;28;20209;-75
2021/10/26 07:40:58;;;;;;;4.90;2.23;;;14.20;99.90;;;;;;5030349;28;20197;-76
2021/10/26 07:43:42;;;;;;;5.07;2.20;;;14.30;99.90;;;;;;5034713;28;20795;-76
2021/10/26 07:46:34;;;;;;;3.60;2.33;;;14.50;99.90;;;;;;5018285;28;20190;-76
2021/10/26 07:49:03;;;;;;;4.00;2.10;;;14.60;99.90;;;;;;5027367;28;20935;-75
2021/10/26 07:51:29;;;;;;;4.87;2.30;;;14.70;99.90;;;;;;5028848;28;20173;-75
2021/10/26 07:53:55;;;;;;;3.83;1.70;;;14.80;99.90;;;;;;5016948;28;21244;-75
2021/10/26 07:56:23;;;;;;;2.27;1.60;;;14.90;99.90;;;;;;5023094;28;20166;-76
2021/10/26 07:58:49;;;;;;;7.93;2.07;;;14.90;99.90;;;;;;5017206;28;20647;-76
2021/10/26 08:01:15;;;;;;;4.93;1.77;;;15.00;99.90;;;;;;5050372;28;20659;-76
2021/10/26 08:04:05;;;;;;;3.70;1.90;;;15.10;99.90;;;;;;5050241;28;20580;-76
2021/10/26 08:06:31;;;;;;;4.13;1.80;;;15.10;99.90;;;;;;5050278;28;20669;-76
2021/10/26 08:08:57;;;;;;;2.33;2.07;;;15.20;99.90;;;;;;5033516;28;20634;-76
2021/10/26 08:11:25;;;;;;;3.73;1.50;;;15.30;99.90;;;;;;5050274;28;20172;-76
2021/10/26 08:13:52;;;;;;;3.13;2.03;;;15.30;99.90;;;;;;5033307;28;20244;-76
2021/10/26 08:16:21;;;;;;;2.70;1.58;;;15.40;99.90;;;;;;5033412;28;20569;-75
2021/10/26 08:18:47;;;;;;;3.37;1.73;;;15.40;99.90;;;;;;5033321;28;20162;-75
2021/10/26 08:21:14;;;;;;;3.60;1.73;;;15.40;99.90;;;;;;5034727;28;20572;-76
2021/10/26 08:23:46;;;;;;;3.10;1.97;;;15.50;99.90;;;;;;5033174;28;20228;-76
2021/10/26 08:26:26;;;;;;;5.93;1.80;;;15.50;99.90;;;;;;5049708;28;21084;-76
2021/10/26 08:29:00;;;;;;;2.92;1.67;;;15.60;99.90;;;;;;5049704;28;21148;-76
2021/10/26 08:31:34;;;;;;;3.40;1.53;;;15.70;99.90;;;;;;5033224;28;20633;-76
2021/10/26 08:34:29;;;;;;;2.20;1.30;;;15.80;99.90;;;;;;5049731;28;20626;-76
2021/10/26 08:36:55;;;;;;;3.93;1.33;;;15.90;99.90;;;;;;5032806;28;20577;-76
2021/10/26 08:39:21;;;;;;;3.47;1.40;;;16.00;99.90;;;;;;5032862;28;20667;-76
2021/10/26 08:41:56;;;;;;;5.93;1.50;;;16.10;99.90;;;;;;5033052;28;20184;-76
2021/10/26 08:44:24;;;;;;;2.33;1.30;;;16.40;99.90;;;;;;5049186;28;20607;-76
2021/10/26 08:46:52;;;;;;;2.20;1.30;;;16.60;99.90;;;;;;5032499;28;21000;-76
2021/10/26 08:49:21;;;;;;;5.00;1.53;;;16.90;99.90;;;;;;5032816;28;20572;-76
2021/10/26 08:52:05;;;;;;;4.60;1.67;;;17.40;99.90;;;;;;5049444;28;20616;-76
2021/10/26 08:54:32;;;;;;;3.33;1.47;;;18.30;99.90;;;;;;5049527;28;20584;-76
2021/10/26 08:57:05;;;;;;;4.57;1.30;;;19.40;99.90;;;;;;5033811;28;20564;-77
2021/10/26 08:59:42;;;;;;;2.90;1.40;;;20.50;99.90;;;;;;5033728;28;20584;-77
2021/10/26 09:02:09;;;;;;;2.97;1.20;;;21.70;99.90;;;;;;5032537;28;20966;-77
2021/10/26 09:04:38;;;;;;;4.53;1.13;;;22.80;99.90;;;;;;5032594;28;20902;-77
2021/10/26 09:07:14;;;;;;;1.90;1.00;;;23.70;99.90;;;;;;5031834;28;20653;-76
2021/10/26 09:09:41;;;;;;;1.73;0.90;;;24.70;99.90;;;;;;5049131;28;20630;-77
2021/10/26 09:18:26;;;;;;;2.33;0.87;;;27.30;99.90;;;;;;5033552;28;20675;-77
2021/10/26 09:20:59;;;;;;;4.90;1.27;;;28.20;99.90;;;;;;5033154;28;21038;-77
2021/10/26 09:23:48;;;;;;;3.17;1.30;;;28.80;99.90;;;;;;5032247;28;20604;-76
2021/10/26 09:26:15;;;;;;;4.43;1.10;;;29.30;99.90;;;;;;5032834;28;20566;-77
2021/10/26 09:28:55;;;;;;;2.00;1.07;;;29.70;99.90;;;;;;5032916;28;20592;-76
2021/10/26 09:31:30;;;;;;;2.00;0.80;;;30.10;99.90;;;;;;5031388;28;20589;-77
2021/10/26 09:34:04;;;;;;;2.27;0.90;;;30.40;99.90;;;;;;5008059;28;20648;-77
2021/10/26 09:36:33;;;;;;;4.30;1.20;;;30.70;99.90;;;;;;5032013;28;20961;-77
2021/10/26 09:39:05;;;;;;;2.17;0.80;;;31.00;99.90;;;;;;5023667;28;20573;-77
2021/10/26 09:41:36;;;;;;;2.40;1.23;;;31.20;99.90;;;;;;5031834;28;20607;-77
2021/10/26 09:44:13;;;;;;;3.70;1.10;;;31.40;99.90;;;;;;5033124;28;20585;-77
2021/10/26 09:46:54;;;;;;;4.27;1.43;;;31.60;99.90;;;;;;5047881;28;20574;-77
2021/10/26 09:49:29;;;;;;;2.57;1.00;;;31.60;99.90;;;;;;5031909;28;21007;-77
2021/10/26 09:52:17;;;;;;;3.40;1.00;;;31.70;99.90;;;;;;5031425;28;20600;-77
2021/10/26 09:55:07;;;;;;;1.93;0.90;;;31.70;99.90;;;;;;5032724;28;20610;-76
2021/10/26 09:57:34;;;;;;;2.20;0.80;;;31.50;98.50;;;;;;5032662;28;20566;-76
2021/10/26 10:00:01;;;;;;;2.63;0.90;;;31.00;97.50;;;;;;5032781;28;20561;-76
2021/10/26 10:02:27;;;;;;;1.87;0.80;;;30.70;97.30;;;;;;5032595;28;21013;-76
2021/10/26 10:04:56;;;;;;;11.83;1.10;;;30.40;96.50;;;;;;5031390;28;20699;-77
2021/10/26 10:07:31;;;;;;;3.93;1.00;;;30.00;96.10;;;;;;5047982;28;20553;-77
2021/10/26 10:09:59;;;;;;;1.73;0.70;;;29.90;96.30;;;;;;5032487;28;20575;-77
2021/10/26 10:12:29;;;;;;;3.07;1.20;;;29.70;96.20;;;;;;5032158;28;20666;-77
2021/10/26 10:14:56;;;;;;;1.70;0.80;;;29.60;96.70;;;;;;5030854;28;20611;-77
2021/10/26 10:17:24;;;;;;;3.30;0.73;;;29.50;96.00;;;;;;5032383;28;20575;-77
2021/10/26 10:19:52;;;;;;;1.43;0.63;;;29.20;94.90;;;;;;5031579;28;20564;-77
2021/10/26 10:22:21;;;;;;;2.13;0.70;;;28.90;94.30;;;;;;5032007;28;20599;-76
2021/10/26 10:24:52;;;;;;;1.60;0.80;;;28.40;93.40;;;;;;5032287;28;20572;-76
2021/10/26 10:27:18;;;;;;;1.90;0.80;;;28.00;93.80;;;;;;5031922;28;20569;-77
2021/10/26 10:29:45;;;;;;;2.23;0.70;;;27.90;94.40;;;;;;5047602;28;20575;-77
2021/10/26 10:32:12;;;;;;;3.00;0.70;;;27.60;94.00;;;;;;5047446;28;21197;-77
2021/10/26 10:34:39;;;;;;;2.17;0.60;;;27.30;93.60;;;;;;5031909;28;20560;-77
2021/10/26 10:37:05;;;;;;;1.77;0.70;;;26.90;93.60;;;;;;5030562;28;20620;-77
2021/10/26 10:39:34;;;;;;;1.83;0.77;;;26.60;92.90;;;;;;5030602;28;20572;-77
2021/10/26 10:42:11;;;;;;;4.43;0.90;;;26.20;92.50;;;;;;5031988;28;20596;-77
2021/10/26 10:44:39;;;;;;;2.30;0.80;;;25.70;92.40;;;;;;5030460;28;20667;-77
2021/10/26 10:47:10;;;;;;;2.07;0.70;;;25.30;93.00;;;;;;5046949;28;20563;-77
2021/10/26 10:49:35;;;;;;;1.70;0.83;;;25.00;93.70;;;;;;5030754;28;20579;-77
2021/10/26 10:52:08;;;;;;;1.93;0.80;;;24.80;94.20;;;;;;5031795;28;20584;-77
2021/10/26 10:54:44;;;;;;;2.50;0.77;;;24.70;94.90;;;;;;5013876;28;20634;-77
2021/10/26 10:57:23;;;;;;;3.17;1.50;;;24.60;94.50;;;;;;5031559;28;21071;-77
2021/10/26 10:59:57;;;;;;;3.53;2.27;;;24.50;94.30;;;;;;5030344;28;20589;-77
2021/10/26 11:02:32;;;;;;;8.23;1.53;;;24.40;95.40;;;;;;5031959;28;20644;-77
2021/10/26 11:04:58;;;;;;;3.00;1.60;;;24.40;95.10;;;;;;5046542;28;20572;-76
2021/10/26 11:07:49;;;;;;;3.40;2.10;;;24.50;95.70;;;;;;5030585;28;21067;-77
2021/10/26 11:10:16;;;;;;;3.97;2.23;;;24.40;94.80;;;;;;5031245;28;20602;-76
2021/10/26 11:12:45;;;;;;;8.00;1.93;;;24.50;95.40;;;;;;5031405;28;20656;-76
2021/10/26 11:15:20;;;;;;;2.20;1.00;;;24.30;94.60;;;;;;5029783;28;21174;-77
2021/10/26 11:17:49;;;;;;;2.80;0.80;;;24.20;94.60;;;;;;5031680;28;20615;-77
2021/10/26 11:20:27;;;;;;;4.53;1.00;;;24.00;94.70;;;;;;5031484;28;20561;-77
2021/10/26 11:22:58;;;;;;;1.90;0.70;;;23.80;94.10;;;;;;5031480;28;20698;-77
2021/10/26 11:25:37;;;;;;;2.50;0.67;;;23.60;94.20;;;;;;5029723;28;20580;-76
2021/10/26 11:28:16;;;;;;;4.33;0.70;;;23.30;93.80;;;;;;5031577;28;20595;-76
2021/10/26 11:30:44;;;;;;;3.37;0.90;;;23.10;93.70;;;;;;5032277;28;20659;-76
2021/10/26 11:33:14;;;;;;;3.50;1.13;;;22.80;94.10;;;;;;5033942;28;20643;-76
2021/10/26 11:35:59;;;;;;;3.23;1.10;;;22.60;94.40;;;;;;5033851;28;20567;-76
2021/10/26 11:38:32;;;;;;;3.10;1.20;;;22.40;94.30;;;;;;5050829;28;20576;-76
2021/10/26 11:41:12;;;;;;;2.90;0.97;;;22.30;94.60;;;;;;5035429;28;20564;-75
2021/10/26 11:43:48;;;;;;;2.77;0.83;;;22.10;94.80;;;;;;5033921;28;20619;-76
2021/10/26 11:46:20;;;;;;;4.10;0.87;;;21.90;94.80;;;;;;5033634;28;20574;-77
2021/10/26 11:48:57;;;;;;;2.33;0.70;;;21.70;94.90;;;;;;5034326;28;20572;-77
2021/10/26 11:51:42;;;;;;;2.93;1.00;;;21.50;95.00;;;;;;5050412;28;20947;-77
2021/10/26 11:54:21;;;;;;;1.90;1.00;;;21.30;95.20;;;;;;5050405;28;20748;-76
2021/10/26 11:56:51;;;;;;;3.70;1.33;;;21.20;95.50;;;;;;5034623;28;20560;-77
2021/10/26 11:59:24;;;;;;;3.40;1.50;;;21.10;95.80;;;;;;5034105;28;20568;-77
2021/10/26 12:01:59;;;;;;;2.33;1.33;;;21.00;96.00;;;;;;5016823;28;20604;-77
2021/10/26 12:04:38;;;;;;;1.97;0.80;;;21.00;96.30;;;;;;5033788;28;20626;-77
2021/10/26 12:07:13;;;;;;;3.67;1.20;;;21.00;96.60;;;;;;5033106;28;20587;-77
2021/10/26 12:09:51;;;;;;;5.17;1.20;;;21.00;96.70;;;;;;5034644;28;20568;-77
2021/10/26 12:12:20;;;;;;;3.33;1.63;;;20.90;96.70;;;;;;5034256;28;20734;-77
2021/10/26 12:14:50;;;;;;;3.00;1.27;;;20.90;97.00;;;;;;5034800;28;20619;-77
2021/10/26 12:17:33;;;;;;;2.53;1.00;;;20.90;97.00;;;;;;5034049;28;20569;-77
2021/10/26 12:20:03;;;;;;;5.40;2.97;;;20.80;96.90;;;;;;5033284;28;20686;-76
2021/10/26 12:26:10;;;;;;;3.33;1.00;;;20.60;96.70;;;;;;5026057;28;20579;-76
2021/10/26 12:28:35;;;;;;;3.23;0.90;;;20.60;96.80;;;;;;5034480;28;20613;-76
2021/10/26 12:31:05;;;;;;;2.30;0.80;;;20.40;97.10;;;;;;5034165;28;20576;-77
2021/10/26 12:33:32;;;;;;;2.47;0.83;;;20.30;96.90;;;;;;5049577;28;20736;-77
2021/10/26 12:36:05;;;;;;;2.17;0.80;;;20.20;97.10;;;;;;5049224;28;20573;-76
2021/10/26 12:38:43;;;;;;;2.40;0.90;;;20.10;96.90;;;;;;5033124;28;20604;-76
2021/10/26 12:41:19;;;;;;;1.97;0.70;;;20.10;97.20;;;;;;5033967;28;20584;-77
2021/10/26 12:44:03;;;;;;;1.57;0.70;;;20.00;97.20;;;;;;5032589;28;20627;-73
2021/10/26 12:46:29;;;;;;;1.90;0.80;;;19.80;97.20;;;;;;5034215;28;20599;-73
2021/10/26 12:49:06;;;;;;;2.83;0.70;;;19.70;97.40;;;;;;5034100;28;20611;-74
2021/10/26 12:51:32;;;;;;;3.40;1.00;;;19.60;97.40;;;;;;5033944;28;20586;-73
2021/10/26 12:54:19;;;;;;;3.23;0.90;;;19.50;97.60;;;;;;5049461;28;20622;-72
2021/10/26 12:56:54;;;;;;;3.50;0.93;;;19.50;97.70;;;;;;5032488;28;20564;-73
2021/10/26 12:59:25;;;;;;;3.20;1.50;;;19.40;97.90;;;;;;5032968;28;20582;-74
2021/10/26 13:02:02;;;;;;;6.20;2.20;;;19.30;98.00;;;;;;5032945;28;20573;-73
2021/10/26 13:04:28;;;;;;;2.17;1.00;;;19.30;98.10;;;;;;5034074;28;20576;-72
2021/10/26 13:07:00;;;;;;;2.13;0.87;;;19.30;98.30;;;;;;5033818;28;20630;-73
2021/10/26 13:09:49;;;;;;;2.47;0.77;;;19.20;98.40;;;;;;5033845;28;20596;-72
2021/10/26 13:12:28;;;;;;;2.27;0.80;;;19.10;98.40;;;;;;5032254;28;21253;-72
2021/10/26 13:15:04;;;;;;;1.83;0.70;;;19.20;98.70;;;;;;5033878;28;20571;-72
2021/10/26 13:17:39;;;;;;;4.93;1.90;;;19.20;98.90;;;;;;5033475;28;20576;-74